createdAt,value
2019-01-11T00:02:01.992Z,8.10
2019-01-11T00:04:33.089Z,8.60
2019-01-11T00:07:04.428Z,7.87
2019-01-11T00:09:35.514Z,8.10
2019-01-11T00:12:06.770Z,7.30
2019-01-11T00:14:37.886Z,7.60
2019-01-11T00:17:09.126Z,7.57
2019-01-11T00:19:40.204Z,7.73
2019-01-11T00:22:11.494Z,8.70
2019-01-11T00:24:43.467Z,7.53
2019-01-11T00:27:14.659Z,8.20
2019-01-11T00:29:46.354Z,8.50
2019-01-11T00:32:17.522Z,8.30
2019-01-11T00:34:48.594Z,8.40
2019-01-11T00:37:19.886Z,8.10
2019-01-11T00:39:52.537Z,8.70
2019-01-11T00:42:23.974Z,8.63
2019-01-11T00:44:55.170Z,8.63
2019-01-11T00:47:26.536Z,8.53
2019-01-11T00:49:57.638Z,8.10
2019-01-11T00:52:28.950Z,8.93
2019-01-11T00:55:00.167Z,8.23
2019-01-11T00:57:31.819Z,8.30
2019-01-11T01:00:02.904Z,7.90
2019-01-11T01:02:34.821Z,8.70
2019-01-11T01:05:06.320Z,9.60
2019-01-11T01:07:37.504Z,8.90
2019-01-11T01:10:08.802Z,9.53
2019-01-11T01:12:40.408Z,9.00
2019-01-11T01:15:14.076Z,8.67
2019-01-11T01:17:45.254Z,8.07
2019-01-11T01:20:16.500Z,9.00
2019-01-11T01:22:48.072Z,8.70
2019-01-11T01:25:19.165Z,8.30
2019-01-11T01:27:50.416Z,8.07
2019-01-11T01:30:21.513Z,9.37
2019-01-11T01:32:57.992Z,8.70
2019-01-11T01:35:29.079Z,8.67
2019-01-11T01:38:00.466Z,9.00
2019-01-11T01:40:33.600Z,8.13
2019-01-11T01:43:04.878Z,8.13
2019-01-11T01:45:35.992Z,9.00
2019-01-11T01:48:07.432Z,9.13
2019-01-11T01:50:38.594Z,8.03
2019-01-11T01:53:09.910Z,7.80
2019-01-11T01:55:41.068Z,8.33
2019-01-11T01:58:12.300Z,7.97
2019-01-11T02:00:43.494Z,7.70
2019-01-11T02:03:14.876Z,7.33
2019-01-11T02:05:45.920Z,7.37
2019-01-11T02:08:17.548Z,7.70
2019-01-11T02:10:48.745Z,7.50
2019-01-11T02:13:19.956Z,7.00
2019-01-11T02:15:51.156Z,7.20
2019-01-11T02:18:22.432Z,7.17
2019-01-11T02:20:53.509Z,7.57
2019-01-11T02:23:24.911Z,7.33
2019-01-11T02:25:55.980Z,7.07
2019-01-11T02:28:27.259Z,7.00
2019-01-11T02:30:58.348Z,6.80
2019-01-11T02:33:29.602Z,7.20
2019-01-11T02:36:00.720Z,7.43
2019-01-11T02:38:32.397Z,6.97
2019-01-11T02:41:03.638Z,7.30
2019-01-11T02:43:34.885Z,7.90
2019-01-11T02:46:05.957Z,8.00
2019-01-11T02:48:37.292Z,8.03
2019-01-11T02:51:08.404Z,8.17
2019-01-11T02:53:39.756Z,8.10
2019-01-11T02:56:10.849Z,7.97
2019-01-11T02:58:42.253Z,8.23
2019-01-11T03:01:13.375Z,7.60
2019-01-11T03:03:44.741Z,8.80
2019-01-11T03:06:15.802Z,7.60
2019-01-11T03:08:47.102Z,8.30
2019-01-11T03:11:18.182Z,7.70
2019-01-11T03:13:49.412Z,7.73
2019-01-11T03:16:20.583Z,7.23
2019-01-11T03:18:52.421Z,8.40
2019-01-11T03:21:23.531Z,8.30
2019-01-11T03:23:54.782Z,7.70
2019-01-11T03:26:25.891Z,8.37
2019-01-11T03:28:57.217Z,7.77
2019-01-11T03:31:37.245Z,7.80
2019-01-11T03:34:08.557Z,7.83
2019-01-11T03:36:39.617Z,7.40
2019-01-11T03:39:10.860Z,7.50
2019-01-11T03:42:07.791Z,6.97
2019-01-11T03:44:39.406Z,7.17
2019-01-11T03:47:10.480Z,7.67
2019-01-11T03:49:41.717Z,7.70
2019-01-11T03:52:12.806Z,7.90
2019-01-11T03:54:44.051Z,6.90
2019-01-11T03:57:15.161Z,7.83
2019-01-11T03:59:46.427Z,7.60
2019-01-11T04:02:17.524Z,7.80
2019-01-11T04:04:48.805Z,7.57
2019-01-11T04:07:19.894Z,7.87
2019-01-11T04:09:51.119Z,7.50
2019-01-11T04:12:22.220Z,7.70
2019-01-11T04:14:53.454Z,7.93
2019-01-11T04:17:24.529Z,7.90
2019-01-11T04:20:01.796Z,8.00
2019-01-11T04:22:30.182Z,8.00
2019-01-11T04:25:11.481Z,7.60
2019-01-11T04:27:42.562Z,9.20
2019-01-11T04:30:18.864Z,8.60
2019-01-11T04:32:50.031Z,8.80
2019-01-11T04:35:21.283Z,8.80
2019-01-11T04:37:52.358Z,9.27
2019-01-11T04:40:23.909Z,9.57
2019-01-11T04:42:54.992Z,11.08
2019-01-11T04:45:26.254Z,9.77
2019-01-11T04:47:57.461Z,10.33
2019-01-11T04:50:28.689Z,9.80
2019-01-11T04:52:59.749Z,9.50
2019-01-11T04:55:31.160Z,9.90
2019-01-11T04:58:02.220Z,8.80
2019-01-11T05:00:33.498Z,9.17
2019-01-11T05:03:04.619Z,9.03
2019-01-11T05:05:36.078Z,8.40
2019-01-11T05:08:07.130Z,9.33
2019-01-11T05:10:39.360Z,9.83
2019-01-11T05:13:36.836Z,9.50
2019-01-11T05:16:08.130Z,9.87
2019-01-11T05:18:39.239Z,9.33
2019-01-11T05:21:10.504Z,10.20
2019-01-11T05:23:42.660Z,10.28
2019-01-11T05:26:14.711Z,11.00
2019-01-11T05:28:45.799Z,10.90
2019-01-11T05:31:17.079Z,10.40
2019-01-11T05:33:48.206Z,11.47
2019-01-11T05:36:21.955Z,11.67
2019-01-11T05:38:53.032Z,11.13
2019-01-11T05:41:24.389Z,12.40
2019-01-11T05:43:55.487Z,12.20
2019-01-11T05:46:26.767Z,13.40
2019-01-11T05:48:59.012Z,14.07
2019-01-11T05:51:30.201Z,14.10
2019-01-11T05:54:01.280Z,14.25
2019-01-11T05:56:32.570Z,14.25
2019-01-11T05:59:07.857Z,12.78
2019-01-11T06:01:40.614Z,14.00
2019-01-11T06:04:29.319Z,14.15
2019-01-11T06:07:18.136Z,14.10
2019-01-11T06:09:49.398Z,13.40
2019-01-11T06:12:20.684Z,13.85
2019-01-11T06:14:51.774Z,12.37
2019-01-11T06:17:23.140Z,13.33
2019-01-11T06:19:54.230Z,12.87
2019-01-11T06:22:25.432Z,12.83
2019-01-11T06:24:57.252Z,12.53
2019-01-11T06:27:28.519Z,12.70
2019-01-11T06:29:59.614Z,14.70
2019-01-11T06:32:30.870Z,14.27
2019-01-11T06:35:02.024Z,14.40
2019-01-11T06:37:34.756Z,17.00
2019-01-11T06:40:07.277Z,15.57
2019-01-11T06:42:38.629Z,14.33
2019-01-11T06:45:13.116Z,13.87
2019-01-11T06:47:44.419Z,14.27
2019-01-11T06:50:15.678Z,13.60
2019-01-11T06:52:47.015Z,13.03
2019-01-11T06:55:18.184Z,14.23
2019-01-11T06:57:49.406Z,13.23
2019-01-11T07:00:20.504Z,14.60
2019-01-11T07:02:51.672Z,13.80
2019-01-11T07:05:22.788Z,14.40
2019-01-11T07:07:54.264Z,14.30
2019-01-11T07:10:25.378Z,13.67
2019-01-11T07:12:56.748Z,12.37
2019-01-11T07:15:28.572Z,13.67
2019-01-11T07:18:00.266Z,13.83
2019-01-11T07:20:31.389Z,14.25
2019-01-11T07:23:02.761Z,13.80
2019-01-11T07:25:33.904Z,14.83
2019-01-11T07:28:05.216Z,15.50
2019-01-11T07:30:54.605Z,14.30
2019-01-11T07:33:25.972Z,14.40
2019-01-11T07:36:19.538Z,14.20
2019-01-11T07:38:50.886Z,14.83
2019-01-11T07:41:21.958Z,14.80
2019-01-11T07:43:53.308Z,15.20
2019-01-11T07:46:24.642Z,15.53
2019-01-11T07:48:56.123Z,15.48
2019-01-11T07:51:46.248Z,16.70
2019-01-11T07:54:17.716Z,17.47
2019-01-11T07:56:48.815Z,15.88
2019-01-11T07:59:20.958Z,15.87
2019-01-11T08:01:52.028Z,15.77
2019-01-11T08:04:23.453Z,16.47
2019-01-11T08:06:54.559Z,15.13
2019-01-11T08:09:25.859Z,15.40
2019-01-11T08:11:56.924Z,15.70
2019-01-11T08:14:28.500Z,16.10
2019-01-11T08:16:59.618Z,16.63
2019-01-11T08:19:30.890Z,16.50
2019-01-11T08:22:04.350Z,16.80
2019-01-11T08:24:37.898Z,16.30
2019-01-11T08:27:21.298Z,17.77
2019-01-11T08:29:52.600Z,16.57
2019-01-11T08:32:24.049Z,15.50
2019-01-11T08:34:55.232Z,16.70
2019-01-11T08:37:26.529Z,17.50
2019-01-11T08:39:57.766Z,17.73
2019-01-11T08:42:29.689Z,16.50
2019-01-11T08:45:01.056Z,18.10
2019-01-11T08:47:32.249Z,15.33
2019-01-11T08:50:03.556Z,16.77
2019-01-11T08:52:34.642Z,16.93
2019-01-11T08:55:06.262Z,17.03
2019-01-11T08:57:37.323Z,15.00
2019-01-11T09:00:10.586Z,16.03
2019-01-11T09:02:41.643Z,15.97
2019-01-11T09:05:13.077Z,15.97
2019-01-11T09:07:44.116Z,16.70
2019-01-11T09:10:22.418Z,16.87
2019-01-11T09:12:49.115Z,16.90
2019-01-11T09:15:20.548Z,16.73
2019-01-11T09:18:19.572Z,17.63
2019-01-11T09:20:52.218Z,19.60
2019-01-11T09:23:23.288Z,17.47
2019-01-11T09:25:54.603Z,16.43
2019-01-11T09:28:25.690Z,17.20
2019-01-11T09:30:57.212Z,17.10
2019-01-11T09:33:28.268Z,17.67
2019-01-11T09:36:03.061Z,18.27
2019-01-11T09:38:34.130Z,19.03
2019-01-11T09:41:07.190Z,17.90
2019-01-11T09:43:38.642Z,19.80
2019-01-11T09:46:10.068Z,17.37
2019-01-11T09:48:43.504Z,17.50
2019-01-11T09:51:15.811Z,18.77
2019-01-11T09:53:47.060Z,16.47
2019-01-11T09:56:18.536Z,18.60
2019-01-11T09:58:49.641Z,17.17
2019-01-11T10:01:21.116Z,18.50
2019-01-11T10:03:52.286Z,17.87
2019-01-11T10:06:23.612Z,19.13
2019-01-11T10:08:54.702Z,18.90
2019-01-11T10:11:26.100Z,19.50
2019-01-11T10:13:57.250Z,17.60
2019-01-11T10:16:28.592Z,18.50
2019-01-11T10:18:59.648Z,19.07
2019-01-11T10:21:30.997Z,17.20
2019-01-11T10:24:02.209Z,17.50
2019-01-11T10:26:33.580Z,17.90
2019-01-11T10:29:04.765Z,18.27
2019-01-11T10:31:37.808Z,19.00
2019-01-11T10:34:08.964Z,17.43
2019-01-11T10:36:40.407Z,16.80
2019-01-11T10:39:11.519Z,18.07
2019-01-11T10:41:42.795Z,17.13
2019-01-11T10:44:13.877Z,16.37
2019-01-11T10:46:49.026Z,14.90
2019-01-11T10:49:18.442Z,16.63
2019-01-11T10:51:49.802Z,17.87
2019-01-11T10:54:37.394Z,15.57
2019-01-11T10:57:08.907Z,16.83
2019-01-11T10:59:39.972Z,15.40
2019-01-11T11:02:11.258Z,15.50
2019-01-11T11:04:42.316Z,16.27
2019-01-11T11:07:14.916Z,16.50
2019-01-11T11:09:45.992Z,14.70
2019-01-11T11:12:17.403Z,16.97
2019-01-11T11:14:48.450Z,17.20
2019-01-11T11:17:19.887Z,16.90
2019-01-11T11:19:50.956Z,16.43
2019-01-11T11:22:22.248Z,17.37
2019-01-11T11:24:53.448Z,15.77
2019-01-11T11:27:24.648Z,15.50
2019-01-11T11:29:55.722Z,15.90
2019-01-11T11:32:41.820Z,14.77
2019-01-11T11:35:12.896Z,14.20
2019-01-11T11:37:44.268Z,15.63
2019-01-11T11:40:15.396Z,15.77
2019-01-11T11:42:46.804Z,14.13
2019-01-11T11:45:19.476Z,11.47
2019-01-11T11:47:50.918Z,13.23
2019-01-11T11:50:22.306Z,12.77
2019-01-11T11:52:54.682Z,13.07
2019-01-11T11:55:25.828Z,12.90
2019-01-11T11:57:57.119Z,13.80
2019-01-11T12:00:29.296Z,13.47
2019-01-11T12:03:00.647Z,13.30
2019-01-11T12:05:31.737Z,13.07
2019-01-11T12:08:05.483Z,11.60
2019-01-11T12:10:36.645Z,12.60
2019-01-11T12:13:08.088Z,12.47
2019-01-11T12:15:39.166Z,12.60
2019-01-11T12:18:10.688Z,12.80
2019-01-11T12:20:41.842Z,11.73
2019-01-11T12:23:13.483Z,12.60
2019-01-11T12:25:44.536Z,12.80
2019-01-11T12:28:15.886Z,12.67
2019-01-11T12:30:47.031Z,12.27
2019-01-11T12:33:18.455Z,14.27
2019-01-11T12:36:01.558Z,13.23
2019-01-11T12:38:33.016Z,13.50
2019-01-11T12:41:04.084Z,13.63
2019-01-11T12:43:35.530Z,13.10
2019-01-11T12:46:06.622Z,12.73
2019-01-11T12:48:37.900Z,12.70
2019-01-11T12:51:09.066Z,11.50
2019-01-11T12:53:41.418Z,12.30
2019-01-11T12:56:12.814Z,12.87
2019-01-11T12:58:44.222Z,12.27
2019-01-11T13:01:15.322Z,12.13
2019-01-11T13:03:46.612Z,12.60
2019-01-11T13:06:17.768Z,12.83
2019-01-11T13:08:49.060Z,12.93
2019-01-11T13:11:20.146Z,12.77
2019-01-11T13:13:51.406Z,13.20
2019-01-11T13:16:22.516Z,13.77
2019-01-11T13:18:53.986Z,12.97
2019-01-11T13:21:25.052Z,13.60
2019-01-11T13:23:56.304Z,12.60
2019-01-11T13:26:29.690Z,11.90
2019-01-11T13:29:00.976Z,13.43
2019-01-11T13:31:32.104Z,12.53
2019-01-11T13:34:03.480Z,13.13
2019-01-11T13:36:34.598Z,11.63
2019-01-11T13:39:11.458Z,12.30
2019-01-11T13:41:43.480Z,12.40
2019-01-11T13:44:14.962Z,11.50
2019-01-11T13:46:46.380Z,11.83
2019-01-11T13:49:17.663Z,12.70
2019-01-11T13:51:48.737Z,12.53
2019-01-11T13:54:22.365Z,11.90
2019-01-11T13:56:53.445Z,12.10
2019-01-11T13:59:24.772Z,11.23
2019-01-11T14:01:55.888Z,11.80
2019-01-11T14:04:27.359Z,12.07
2019-01-11T14:06:58.554Z,13.10
2019-01-11T14:09:30.362Z,14.40
2019-01-11T14:12:01.472Z,11.73
2019-01-11T14:14:32.953Z,13.17
2019-01-11T14:17:04.063Z,13.33
2019-01-11T14:19:35.640Z,13.10
2019-01-11T14:22:06.688Z,13.00
2019-01-11T14:24:38.044Z,11.90
2019-01-11T14:27:09.188Z,13.17
2019-01-11T14:29:40.489Z,12.90
2019-01-11T14:32:11.621Z,13.10
2019-01-11T14:34:42.896Z,12.33
2019-01-11T14:37:13.974Z,13.80
2019-01-11T14:39:45.224Z,13.20
2019-01-11T14:42:16.324Z,14.20
2019-01-11T14:44:47.576Z,14.17
2019-01-11T14:47:18.632Z,13.30
2019-01-11T14:49:49.920Z,13.60
2019-01-11T14:52:21.001Z,13.87
2019-01-11T14:54:52.246Z,14.47
2019-01-11T14:57:23.396Z,15.60
2019-01-11T14:59:54.754Z,13.43
2019-01-11T15:02:25.854Z,12.80
2019-01-11T15:04:57.350Z,14.77
2019-01-11T15:07:28.496Z,14.87
2019-01-11T15:10:02.009Z,12.50
2019-01-11T15:12:33.177Z,12.67
2019-01-11T15:15:04.929Z,12.80
2019-01-11T15:17:36.166Z,13.60
2019-01-11T15:20:09.706Z,13.40
2019-01-11T15:22:40.880Z,13.57
2019-01-11T15:25:12.266Z,13.70
2019-01-11T15:27:43.354Z,13.83
2019-01-11T15:30:19.537Z,13.73
2019-01-11T15:32:50.764Z,14.00
2019-01-11T15:35:21.966Z,14.83
2019-01-11T15:37:53.036Z,20.50
2019-01-11T15:40:29.434Z,17.40
2019-01-11T15:43:01.563Z,14.83
2019-01-11T15:45:32.874Z,18.37
2019-01-11T15:48:03.940Z,14.87
2019-01-11T15:50:56.216Z,15.07
2019-01-11T15:53:38.283Z,14.63
2019-01-11T15:56:13.574Z,15.13
2019-01-11T15:58:45.080Z,15.23
2019-01-11T16:01:16.465Z,15.83
2019-01-11T16:03:47.554Z,15.40
2019-01-11T16:06:35.606Z,15.90
2019-01-11T16:10:01.706Z,16.17
2019-01-11T16:13:17.401Z,15.47
2019-01-11T16:16:25.145Z,14.93
2019-01-11T16:18:59.202Z,15.17
2019-01-11T16:21:30.299Z,16.50
2019-01-11T16:24:01.586Z,15.00
2019-01-11T16:26:33.868Z,16.67
2019-01-11T16:29:05.283Z,16.70
2019-01-11T16:31:36.459Z,15.30
2019-01-11T16:34:09.889Z,15.30
2019-01-11T16:36:41.128Z,16.67
2019-01-11T16:39:12.518Z,15.80
2019-01-11T16:41:43.585Z,16.50
2019-01-11T16:44:15.949Z,15.30
2019-01-11T16:46:47.104Z,15.37
2019-01-11T16:49:18.420Z,14.27
2019-01-11T16:51:50.419Z,14.80
2019-01-11T16:54:21.746Z,16.17
2019-01-11T16:56:52.827Z,15.67
2019-01-11T16:59:24.230Z,13.87
2019-01-11T17:01:55.340Z,15.07
2019-01-11T17:04:26.721Z,15.50
2019-01-11T17:06:57.879Z,15.50
2019-01-11T17:09:29.346Z,15.90
2019-01-11T17:12:00.466Z,16.20
2019-01-11T17:14:31.786Z,15.93
2019-01-11T17:17:02.847Z,19.63
2019-01-11T17:19:34.082Z,22.50
2019-01-11T17:22:05.176Z,15.70
2019-01-11T17:24:36.638Z,16.77
2019-01-11T17:27:07.830Z,16.53
2019-01-11T17:29:39.182Z,16.33
2019-01-11T17:32:10.289Z,17.20
2019-01-11T17:34:41.610Z,17.67
2019-01-11T17:37:12.729Z,15.73
2019-01-11T17:39:43.995Z,16.37
2019-01-11T17:42:15.095Z,19.13
2019-01-11T17:44:46.442Z,16.50
2019-01-11T17:47:17.540Z,15.80
2019-01-11T17:49:48.786Z,15.87
2019-01-11T17:52:19.951Z,16.77
2019-01-11T17:54:51.319Z,16.13
2019-01-11T17:57:22.409Z,15.07
2019-01-11T17:59:53.774Z,15.20
2019-01-11T18:02:24.899Z,15.53
2019-01-11T18:04:56.160Z,14.93
2019-01-11T18:07:27.294Z,16.07
2019-01-11T18:09:58.759Z,16.70
2019-01-11T18:12:32.248Z,15.97
2019-01-11T18:15:03.746Z,14.97
2019-01-11T18:17:35.295Z,17.27
2019-01-11T18:20:09.686Z,16.23
2019-01-11T18:22:40.988Z,15.60
2019-01-11T18:25:12.281Z,15.53
2019-01-11T18:27:43.445Z,16.47
2019-01-11T18:30:15.588Z,15.17
2019-01-11T18:32:46.778Z,16.70
2019-01-11T18:35:18.024Z,17.23
2019-01-11T18:37:49.157Z,17.90
2019-01-11T18:40:22.857Z,16.97
2019-01-11T18:42:53.991Z,17.87
2019-01-11T18:45:28.877Z,17.60
2019-01-11T18:47:58.165Z,18.33
2019-01-11T18:50:29.437Z,17.53
2019-01-11T18:53:00.507Z,18.07
2019-01-11T18:55:32.096Z,16.83
2019-01-11T18:58:03.514Z,17.67
2019-01-11T19:00:34.832Z,17.93
2019-01-11T19:03:05.918Z,16.47
2019-01-11T19:05:37.214Z,14.37
2019-01-11T19:08:08.307Z,13.40
2019-01-11T19:10:39.748Z,13.87
2019-01-11T19:13:11.693Z,15.10
2019-01-11T19:15:43.166Z,15.80
2019-01-11T19:18:14.384Z,16.10
2019-01-11T19:20:45.780Z,16.55
2019-01-11T19:23:20.423Z,17.70
2019-01-11T19:25:50.298Z,18.03
2019-01-11T19:28:21.373Z,18.50
2019-01-11T19:30:53.196Z,15.93
2019-01-11T19:33:24.304Z,14.10
2019-01-11T19:35:55.870Z,15.03
2019-01-11T19:38:26.942Z,13.83
2019-01-11T19:40:58.604Z,16.13
2019-01-11T19:43:29.748Z,16.10
2019-01-11T19:46:01.191Z,13.33
2019-01-11T19:48:32.267Z,13.87
2019-01-11T19:51:03.607Z,15.00
2019-01-11T19:53:35.757Z,15.40
2019-01-11T19:56:07.233Z,13.57
2019-01-11T19:58:39.626Z,15.43
2019-01-11T20:01:11.140Z,16.10
2019-01-11T20:03:42.366Z,15.17
2019-01-11T20:06:13.685Z,13.63
2019-01-11T20:08:44.955Z,14.53
2019-01-11T20:11:17.618Z,14.10
2019-01-11T20:13:48.698Z,13.43
2019-01-11T20:16:20.152Z,14.03
2019-01-11T20:18:51.300Z,14.30
2019-01-11T20:21:22.710Z,11.87
2019-01-11T20:23:53.808Z,13.33
2019-01-11T20:26:25.102Z,14.93
2019-01-11T20:28:56.184Z,16.00
2019-01-11T20:31:27.691Z,14.83
2019-01-11T20:33:58.820Z,16.47
2019-01-11T20:36:33.210Z,15.03
2019-01-11T20:39:05.021Z,16.00
2019-01-11T20:41:36.875Z,14.47
2019-01-11T20:44:07.969Z,13.60
2019-01-11T20:46:39.962Z,15.07
2019-01-11T20:49:11.044Z,13.90
2019-01-11T20:51:42.300Z,14.70
2019-01-11T20:54:13.427Z,13.60
2019-01-11T20:56:45.594Z,14.37
2019-01-11T20:59:16.708Z,14.30
2019-01-11T21:01:48.041Z,15.20
2019-01-11T21:04:19.139Z,13.77
2019-01-11T21:06:50.420Z,14.98
2019-01-11T21:09:21.490Z,15.10
2019-01-11T21:11:52.950Z,15.60
2019-01-11T21:14:24.032Z,15.37
2019-01-11T21:16:55.540Z,16.93
2019-01-11T21:19:26.631Z,16.70
2019-01-11T21:21:58.024Z,15.78
2019-01-11T21:24:29.147Z,14.77
2019-01-11T21:27:00.514Z,16.23
2019-01-11T21:29:31.586Z,15.63
2019-01-11T21:32:02.922Z,15.63
2019-01-11T21:34:33.978Z,14.50
2019-01-11T21:37:05.173Z,13.70
2019-01-11T21:39:36.320Z,15.03
2019-01-11T21:42:08.298Z,14.43
2019-01-11T21:44:39.585Z,14.05
2019-01-11T21:47:10.834Z,13.90
2019-01-11T21:49:41.950Z,13.67
2019-01-11T21:52:14.424Z,13.37
2019-01-11T21:54:45.673Z,14.15
2019-01-11T21:57:17.002Z,13.43
2019-01-11T21:59:48.128Z,13.23
2019-01-11T22:02:19.424Z,14.17
2019-01-11T22:04:50.840Z,13.03
2019-01-11T22:07:22.139Z,13.70
2019-01-11T22:09:53.281Z,12.37
2019-01-11T22:12:24.996Z,12.07
2019-01-11T22:14:56.178Z,12.50
2019-01-11T22:17:27.706Z,10.67
2019-01-11T22:19:59.797Z,11.00
2019-01-11T22:22:31.089Z,11.37
2019-01-11T22:25:02.341Z,10.83
2019-01-11T22:27:35.050Z,11.10
2019-01-11T22:30:10.457Z,11.23
2019-01-11T22:32:41.638Z,11.23
2019-01-11T22:35:12.757Z,12.07
2019-01-11T22:37:44.102Z,12.00
2019-01-11T22:40:20.502Z,12.33
2019-01-11T22:42:55.914Z,12.40
2019-01-11T22:45:27.160Z,12.47
2019-01-11T22:47:58.427Z,12.23
2019-01-11T22:50:29.692Z,12.60
2019-01-11T22:53:00.902Z,13.53
2019-01-11T22:55:31.996Z,13.30
2019-01-11T22:58:03.173Z,11.93
2019-01-11T23:00:42.019Z,12.30
2019-01-11T23:03:21.102Z,13.20
2019-01-11T23:05:56.111Z,13.90
2019-01-11T23:08:27.306Z,12.50
2019-01-11T23:11:29.137Z,12.73
2019-01-11T23:14:00.419Z,13.07
2019-01-11T23:16:45.573Z,13.00
2019-01-11T23:19:16.932Z,13.90
2019-01-11T23:21:48.045Z,12.40
2019-01-11T23:24:19.256Z,13.10
2019-01-11T23:26:50.474Z,12.40
2019-01-11T23:29:21.820Z,12.77
2019-01-11T23:31:53.008Z,12.07
2019-01-11T23:34:24.208Z,12.33
2019-01-11T23:36:55.300Z,12.20
2019-01-11T23:39:26.629Z,12.20
2019-01-11T23:41:57.759Z,12.23
2019-01-11T23:44:29.089Z,13.07
2019-01-11T23:47:00.232Z,12.25
2019-01-11T23:49:31.563Z,13.20
2019-01-11T23:52:04.158Z,14.40
2019-01-11T23:54:35.600Z,13.25
2019-01-11T23:57:09.026Z,13.67
2019-01-11T23:59:40.352Z,14.28
